Time;durP1;ratioP1;P1;durP2;ratioP2;P2;SDS_P1;SDS_P2;PMS_P1;PMS_P2;Temp;Humidity;BMP_temperature;BMP_pressure;BME280_temperature;BME280_humidity;BME280_pressure;Samples;Min_cycle;Max_cycle;Signal;HPM_P1;HPM_P2
2022/12/10 00:01:58;;;;;;;9.10;8.30;;;;;;;1.40;94.77;96452.39;106406;1313;23107;-84
2022/12/10 00:04:26;;;;;;;10.20;9.30;;;;;;;1.45;94.54;96446.95;106390;1300;22195;-83
2022/12/10 00:06:54;;;;;;;7.90;7.20;;;;;;;1.47;94.53;96445.02;106672;1291;22107;-83
2022/12/10 00:09:22;;;;;;;7.40;6.70;;;;;;;1.51;94.44;96449.73;106664;1305;22178;-83
2022/12/10 00:11:50;;;;;;;7.00;6.30;;;;;;;1.53;94.51;96454.96;106481;1312;22839;-83
2022/12/10 00:14:18;;;;;;;7.80;7.10;;;;;;;1.54;94.54;96449.92;106382;1312;22270;-83
2022/12/10 00:16:46;;;;;;;10.80;9.80;;;;;;;1.51;94.40;96447.28;106282;1313;22231;-83
2022/12/10 00:19:14;;;;;;;8.20;7.40;;;;;;;1.47;94.26;96442.27;106234;1312;22219;-84
2022/12/10 00:21:43;;;;;;;8.50;7.70;;;;;;;1.44;94.45;96448.12;106481;1312;22227;-84
2022/12/10 00:24:11;;;;;;;8.10;7.30;;;;;;;1.40;94.44;96441.04;106213;1313;22251;-83
2022/12/10 00:26:39;;;;;;;6.00;5.40;;;;;;;1.37;94.33;96442.16;106476;1305;22229;-84
2022/12/10 00:29:11;;;;;;;8.10;7.40;;;;;;;1.26;94.43;96439.89;106243;1312;22152;-84
2022/12/10 00:31:40;;;;;;;7.10;6.40;;;;;;;1.17;94.52;96436.23;106184;1313;22259;-84
2022/12/10 00:34:15;;;;;;;6.40;5.80;;;;;;;1.14;94.60;96444.84;106222;1312;23117;-83
2022/12/10 00:36:46;;;;;;;7.30;6.60;;;;;;;1.09;94.91;96443.85;106456;1310;22108;-83
2022/12/10 00:39:17;;;;;;;7.00;6.30;;;;;;;1.02;94.77;96441.23;106483;1305;22243;-83
2022/12/10 00:41:46;;;;;;;8.60;7.80;;;;;;;1.01;94.84;96446.50;106483;1312;22971;-83
2022/12/10 00:44:15;;;;;;;8.40;7.60;;;;;;;1.01;94.84;96448.42;106523;1300;22157;-83
2022/12/10 00:46:43;;;;;;;18.80;17.20;;;;;;;1.00;94.93;96450.11;106409;1312;22195;-84
2022/12/10 00:49:11;;;;;;;9.80;8.90;;;;;;;1.01;94.98;96444.22;106481;1312;22169;-84
2022/12/10 00:51:39;;;;;;;8.40;7.50;;;;;;;1.00;94.94;96445.08;106495;1308;22176;-85
2022/12/10 00:54:07;;;;;;;7.90;7.10;;;;;;;0.99;95.17;96452.67;106531;1306;22212;-84
2022/12/10 00:56:35;;;;;;;7.20;6.40;;;;;;;0.95;95.15;96457.83;106177;1312;22196;-85
2022/12/10 00:59:03;;;;;;;9.10;8.30;;;;;;;0.95;95.32;96449.72;106283;1312;22271;-85
2022/12/10 01:01:35;;;;;;;7.90;7.20;;;;;;;0.91;95.01;96453.88;106665;1297;22170;-84
2022/12/10 01:04:10;;;;;;;7.60;6.90;;;;;;;0.91;95.32;96458.05;106364;1312;23062;-84
2022/12/10 01:06:45;;;;;;;7.30;6.60;;;;;;;0.90;95.14;96463.20;106463;1302;22920;-84
2022/12/10 01:09:16;;;;;;;7.00;6.30;;;;;;;0.89;95.30;96471.43;106238;1312;22393;-84
2022/12/10 01:11:46;;;;;;;6.60;6.00;;;;;;;0.89;95.50;96469.73;106552;1305;22217;-83
2022/12/10 01:14:20;;;;;;;8.00;6.60;;;;;;;0.87;95.64;96468.99;106463;1312;22192;-82
2022/12/10 01:16:49;;;;;;;8.30;7.50;;;;;;;0.85;95.54;96467.58;106653;1305;22162;-82
2022/12/10 01:19:17;;;;;;;7.50;6.80;;;;;;;0.85;95.43;96466.04;106605;1305;22228;-83
2022/12/10 01:21:49;;;;;;;9.40;8.50;;;;;;;0.82;95.31;96468.95;106687;1290;22824;-83
2022/12/10 01:24:17;;;;;;;8.00;7.20;;;;;;;0.84;95.60;96474.73;106457;1312;22050;-82
2022/12/10 01:26:45;;;;;;;8.10;7.30;;;;;;;0.85;95.60;96479.77;106249;1311;22860;-83
2022/12/10 01:29:14;;;;;;;9.10;8.30;;;;;;;0.87;95.69;96481.52;106460;1312;22257;-84
2022/12/10 01:31:42;;;;;;;9.40;7.90;;;;;;;0.89;95.66;96481.98;106203;1313;22259;-83
2022/12/10 01:34:13;;;;;;;9.30;8.50;;;;;;;0.91;95.80;96478.79;106458;1312;22191;-83
2022/12/10 01:36:44;;;;;;;10.50;9.60;;;;;;;0.88;95.74;96480.02;106651;1305;22165;-82
2022/12/10 01:39:15;;;;;;;10.50;9.50;;;;;;;0.93;95.93;96484.14;106749;1301;23033;-83
2022/12/10 01:41:50;;;;;;;10.20;9.30;;;;;;;0.98;95.77;96486.04;106373;1312;22204;-83
2022/12/10 01:44:18;;;;;;;;;;;;;;;1.04;95.79;96484.30;106215;1312;22423;-83
2022/12/10 01:46:48;;;;;;;10.10;9.10;;;;;;;1.06;95.60;96490.66;106501;1312;22152;-84
2022/12/10 01:49:19;;;;;;;9.60;8.70;;;;;;;1.12;95.59;96488.25;106381;1312;22189;-83
2022/12/10 01:51:51;;;;;;;14.70;13.50;;;;;;;1.14;95.45;96487.67;106266;1312;22210;-82
2022/12/10 01:54:20;;;;;;;13.10;11.90;;;;;;;1.12;95.75;96492.72;106419;1312;22442;-82
2022/12/10 01:56:57;;;;;;;12.00;10.90;;;;;;;1.13;95.93;96493.34;106413;1312;22983;-83
2022/12/10 01:59:26;;;;;;;9.80;8.90;;;;;;;1.16;95.96;96500.39;106753;1291;22841;-82
2022/12/10 02:02:00;;;;;;;9.90;8.90;;;;;;;1.20;95.64;96500.48;106472;1312;22321;-84
2022/12/10 02:04:41;;;;;;;11.00;10.10;;;;;;;1.24;95.44;96490.06;106521;1312;22089;-84
2022/12/10 02:07:46;;;;;;;10.50;9.60;;;;;;;1.27;95.45;96489.73;106756;1305;22167;-85
2022/12/10 02:10:34;;;;;;;11.10;10.10;;;;;;;1.22;95.63;96495.22;106282;1312;23106;-84
2022/12/10 02:13:18;;;;;;;13.50;12.40;;;;;;;1.12;95.70;96498.61;106409;1312;22234;-84
2022/12/10 02:16:03;;;;;;;11.50;10.50;;;;;;;1.09;95.55;96498.41;106461;1311;22219;-83
2022/12/10 02:18:39;;;;;;;11.20;10.10;;;;;;;1.06;95.69;96500.91;106485;1312;22162;-83
2022/12/10 02:21:21;;;;;;;11.70;10.60;;;;;;;1.06;95.86;96502.44;106421;1312;22807;-84
2022/12/10 02:23:54;;;;;;;12.60;11.40;;;;;;;1.04;95.76;96501.34;106229;1312;22218;-84
2022/12/10 02:26:51;;;;;;;14.70;13.30;;;;;;;1.04;95.80;96496.67;106244;1312;22245;-84
2022/12/10 02:29:23;;;;;;;14.50;13.20;;;;;;;1.03;95.70;96502.14;106217;1312;22172;-84
2022/12/10 02:31:59;;;;;;;15.30;13.90;;;;;;;1.00;95.67;96503.91;106402;1312;22618;-84
2022/12/10 02:34:30;;;;;;;;;;;;;;;0.93;95.82;96501.48;106633;1300;22303;-84
2022/12/10 02:37:04;;;;;;;16.30;14.80;;;;;;;0.92;95.85;96502.49;106405;1312;23052;-83
2022/12/10 02:39:41;;;;;;;18.80;17.10;;;;;;;0.98;95.90;96501.69;106547;1306;22069;-83
2022/12/10 02:42:13;;;;;;;16.30;14.90;;;;;;;1.03;96.03;96501.29;106410;1312;22285;-84
2022/12/10 02:44:44;;;;;;;16.00;14.60;;;;;;;1.00;95.82;96501.84;106177;1312;22965;-83
2022/12/10 02:47:13;;;;;;;18.60;17.00;;;;;;;0.95;95.74;96505.45;106364;1312;22274;-83
2022/12/10 02:49:47;;;;;;;17.20;15.50;;;;;;;0.97;96.17;96507.04;106163;1312;22249;-83
2022/12/10 02:52:18;;;;;;;17.70;15.90;;;;;;;0.98;95.96;96508.21;106221;1312;22267;-83
2022/12/10 02:54:49;;;;;;;16.40;14.80;;;;;;;0.95;96.10;96512.89;106471;1306;22222;-83
2022/12/10 02:57:52;;;;;;;15.00;13.40;;;;;;;0.92;95.93;96518.30;106195;1312;22231;-84
2022/12/10 03:00:24;;;;;;;15.90;14.40;;;;;;;0.93;96.20;96529.06;106385;1310;23040;-84
2022/12/10 03:03:36;;;;;;;17.00;15.50;;;;;;;0.87;96.08;96528.09;106232;1306;22087;-84
2022/12/10 03:06:19;;;;;;;17.10;15.70;;;;;;;0.87;96.26;96520.12;106590;1293;22064;-85
2022/12/10 03:08:52;;;;;;;17.80;16.30;;;;;;;0.91;96.05;96514.02;106439;1312;22152;-85
2022/12/10 03:11:23;;;;;;;17.60;16.10;;;;;;;0.94;95.74;96505.03;106172;1314;22343;-84
2022/12/10 03:13:58;;;;;;;14.90;13.60;;;;;;;0.97;95.93;96507.58;106596;1300;22941;-84
2022/12/10 03:16:42;;;;;;;15.50;14.10;;;;;;;0.94;96.15;96504.35;106590;1305;22216;-84
2022/12/10 03:19:21;;;;;;;16.20;14.80;;;;;;;0.93;96.32;96499.95;106681;1305;22150;-84
2022/12/10 03:21:52;;;;;;;15.90;14.50;;;;;;;0.94;96.10;96498.14;106687;1305;22155;-83
2022/12/10 03:24:27;;;;;;;13.40;12.30;;;;;;;0.92;96.03;96504.88;106487;1312;22176;-84
2022/12/10 03:26:57;;;;;;;12.60;11.50;;;;;;;0.90;95.92;96512.46;106499;1312;22947;-83
2022/12/10 03:29:37;;;;;;;14.20;12.90;;;;;;;0.95;96.05;96511.77;106497;1312;22127;-85
2022/12/10 03:32:06;;;;;;;15.60;14.30;;;;;;;1.00;96.16;96513.50;106740;1290;22863;-85
2022/12/10 03:34:36;;;;;;;16.10;14.70;;;;;;;1.03;96.44;96522.23;106422;1312;22165;-85
2022/12/10 03:37:05;;;;;;;16.20;14.70;;;;;;;1.05;96.37;96532.42;106507;1311;22178;-85
2022/12/10 03:39:33;;;;;;;13.30;12.20;;;;;;;1.07;96.25;96534.65;106614;1298;22080;-85
2022/12/10 03:42:01;;;;;;;13.50;12.20;;;;;;;1.11;96.34;96536.45;106475;1312;22207;-84
2022/12/10 03:44:35;;;;;;;12.50;11.40;;;;;;;1.19;96.30;96539.80;106486;1312;22091;-84
2022/12/10 03:47:06;;;;;;;13.70;12.30;;;;;;;1.19;96.23;96539.33;106391;1312;22909;-84
2022/12/10 03:49:34;;;;;;;13.10;11.90;;;;;;;1.17;96.45;96543.58;106473;1312;22263;-84
2022/12/10 03:52:03;;;;;;;14.30;12.90;;;;;;;1.18;96.37;96551.48;106373;1312;22552;-83
2022/12/10 03:54:31;;;;;;;12.00;10.80;;;;;;;1.16;96.07;96558.96;106371;1312;22295;-84
2022/12/10 03:56:59;;;;;;;13.10;11.90;;;;;;;1.15;96.17;96560.89;106010;1312;22282;-84
2022/12/10 03:59:27;;;;;;;13.30;11.80;;;;;;;1.10;96.10;96555.59;106451;1308;22186;-84
2022/12/10 04:01:58;;;;;;;10.90;10.00;;;;;;;1.13;96.13;96555.73;106408;1312;22182;-85
2022/12/10 04:04:26;;;;;;;11.70;10.70;;;;;;;1.16;96.24;96555.20;106512;1312;22163;-83
2022/12/10 04:06:54;;;;;;;12.10;11.00;;;;;;;1.21;96.59;96558.53;106226;1312;22873;-83
2022/12/10 04:09:22;;;;;;;12.30;11.20;;;;;;;1.22;96.30;96561.34;106512;1293;22162;-84
2022/12/10 04:11:49;;;;;;;12.50;11.40;;;;;;;1.22;96.31;96564.27;106454;1301;22237;-84
2022/12/10 04:17:04;;;;;;;16.80;15.30;;;;;;;1.23;96.16;96575.94;106669;1305;22288;-84
2022/12/10 04:19:32;;;;;;;15.00;13.60;;;;;;;1.24;96.07;96576.14;106367;1312;23021;-84
2022/12/10 04:27:36;;;;;;;15.80;14.40;;;;;;;1.35;95.84;96589.48;106360;1312;23192;-84
2022/12/10 04:30:07;;;;;;;14.90;13.50;;;;;;;1.29;95.68;96594.22;106459;1304;22168;-83
2022/12/10 04:32:35;;;;;;;12.20;11.20;;;;;;;1.23;95.58;96586.85;106405;1312;22213;-84
2022/12/10 04:35:04;;;;;;;14.00;12.80;;;;;;;1.21;95.79;96583.27;106518;1297;22186;-83
2022/12/10 04:37:32;;;;;;;13.90;12.70;;;;;;;1.25;96.25;96578.14;106402;1312;22280;-83
2022/12/10 04:40:00;;;;;;;22.10;20.30;;;;;;;1.28;95.87;96575.10;106375;1312;23030;-82
2022/12/10 04:42:28;;;;;;;15.70;14.20;;;;;;;1.28;95.84;96568.16;106454;1305;22211;-84
2022/12/10 04:44:56;;;;;;;13.80;12.60;;;;;;;1.27;96.10;96574.00;106714;1303;22891;-84
2022/12/10 04:47:24;;;;;;;13.80;12.60;;;;;;;1.21;95.82;96587.18;106490;1310;22074;-83
2022/12/10 04:49:52;;;;;;;13.10;11.90;;;;;;;1.15;96.03;96597.76;106495;1312;22211;-83
2022/12/10 04:52:20;;;;;;;11.10;10.10;;;;;;;1.11;96.00;96607.20;106507;1312;22782;-84
2022/12/10 04:54:48;;;;;;;19.40;17.80;;;;;;;1.09;96.25;96609.23;106463;1304;22176;-83
2022/12/10 04:57:16;;;;;;;12.70;11.60;;;;;;;1.06;95.98;96598.84;106467;1312;22225;-82
2022/12/10 04:59:44;;;;;;;17.20;15.60;;;;;;;1.04;96.00;96591.42;106702;1295;22092;-86
2022/12/10 05:02:12;;;;;;;13.00;11.90;;;;;;;1.08;96.22;96585.52;106299;1312;22134;-84
2022/12/10 05:04:41;;;;;;;12.00;11.00;;;;;;;1.07;96.48;96586.16;106362;1307;22272;-83
2022/12/10 05:07:09;;;;;;;10.90;9.90;;;;;;;0.95;96.36;96590.90;106703;1291;22813;-82
2022/12/10 05:09:38;;;;;;;12.10;10.90;;;;;;;0.88;96.50;96598.77;106484;1312;22217;-83
2022/12/10 05:12:06;;;;;;;12.50;11.40;;;;;;;0.82;96.58;96609.18;106349;1312;22196;-81
2022/12/10 05:14:34;;;;;;;15.60;14.30;;;;;;;0.77;96.73;96618.52;106276;1312;22156;-82
2022/12/10 05:17:02;;;;;;;15.50;14.10;;;;;;;0.73;96.75;96626.95;106801;1290;22370;-84
2022/12/10 05:19:30;;;;;;;12.80;11.70;;;;;;;0.68;96.54;96622.23;106633;1312;23033;-85
2022/12/10 05:24:45;;;;;;;10.40;9.50;;;;;;;0.68;96.91;96632.68;106549;1311;22224;-83
2022/12/10 05:27:13;;;;;;;11.40;10.30;;;;;;;0.68;97.12;96643.08;106512;1312;22230;-85
2022/12/10 05:29:41;;;;;;;12.40;11.20;;;;;;;0.67;97.25;96646.89;106728;1297;22027;-86
2022/12/10 05:32:09;;;;;;;14.10;12.70;;;;;;;0.64;97.18;96646.77;106737;1289;22120;-84
2022/12/10 05:34:37;;;;;;;13.30;11.90;;;;;;;0.63;97.11;96653.31;106615;1303;22223;-83
2022/12/10 05:37:05;;;;;;;11.90;10.80;;;;;;;0.65;97.12;96655.43;106412;1312;22266;-84
2022/12/10 05:39:33;;;;;;;12.60;11.40;;;;;;;0.73;97.05;96659.14;106476;1312;22089;-84
2022/12/10 05:42:01;;;;;;;12.90;11.60;;;;;;;0.76;96.99;96653.83;106497;1307;22200;-84
2022/12/10 05:44:29;;;;;;;13.60;12.20;;;;;;;0.77;97.10;96643.77;106631;1293;22203;-84
2022/12/10 05:46:57;;;;;;;20.30;16.60;;;;;;;0.80;97.30;96640.26;106566;1312;22142;-85
2022/12/10 05:49:25;;;;;;;15.30;13.70;;;;;;;0.73;97.34;96636.77;106369;1312;22216;-84
2022/12/10 05:51:55;;;;;;;16.00;14.30;;;;;;;0.70;97.37;96631.19;106480;1312;22211;-84
2022/12/10 05:54:23;;;;;;;14.40;13.10;;;;;;;0.67;97.34;96629.61;106349;1304;23048;-84
2022/12/10 05:56:51;;;;;;;12.60;11.50;;;;;;;0.67;97.44;96629.34;106677;1305;22148;-86
2022/12/10 05:59:19;;;;;;;12.80;11.60;;;;;;;0.67;97.17;96628.08;106592;1292;22071;-85
2022/12/10 06:01:46;;;;;;;12.80;11.60;;;;;;;0.68;97.41;96616.25;106687;1305;22211;-85
2022/12/10 06:04:14;;;;;;;15.10;13.80;;;;;;;0.64;97.52;96609.15;106496;1312;22924;-85
2022/12/10 06:06:43;;;;;;;14.70;13.40;;;;;;;0.62;97.53;96610.48;106515;1312;22237;-85
2022/12/10 06:09:13;;;;;;;13.60;12.40;;;;;;;0.63;97.48;96609.03;106605;1309;22955;-85
2022/12/10 06:11:41;;;;;;;13.80;12.60;;;;;;;0.63;97.38;96608.61;106582;1292;22175;-85
2022/12/10 06:14:10;;;;;;;16.00;14.40;;;;;;;0.65;97.52;96609.95;106242;1310;22222;-84
2022/12/10 06:16:40;;;;;;;15.60;14.20;;;;;;;0.61;97.70;96608.51;106209;1312;22181;-84
2022/12/10 06:19:08;;;;;;;15.20;13.90;;;;;;;0.55;97.80;96609.78;106222;1312;22309;-84
2022/12/10 06:21:36;;;;;;;16.10;14.60;;;;;;;0.57;97.70;96600.73;106247;1312;22207;-85
2022/12/10 06:24:04;;;;;;;15.50;14.20;;;;;;;0.58;97.80;96594.89;106505;1312;22097;-85
2022/12/10 06:26:32;;;;;;;16.00;14.70;;;;;;;0.59;97.91;96601.52;106666;1305;22217;-84
2022/12/10 06:29:00;;;;;;;17.50;16.00;;;;;;;0.56;97.78;96614.29;106280;1312;22188;-84
2022/12/10 06:31:28;;;;;;;17.60;15.90;;;;;;;0.56;97.96;96627.91;106266;1312;22118;-84
2022/12/10 06:33:56;;;;;;;17.40;15.90;;;;;;;0.52;98.08;96633.75;106254;1312;23529;-84
2022/12/10 06:36:24;;;;;;;16.90;15.30;;;;;;;0.54;98.04;96630.95;106267;1312;22238;-83
2022/12/10 06:38:52;;;;;;;16.40;14.80;;;;;;;0.55;98.25;96640.80;106692;1305;22092;-84
2022/12/10 06:41:20;;;;;;;18.00;16.40;;;;;;;0.54;98.09;96647.95;106698;1300;23421;-84
2022/12/10 06:43:48;;;;;;;16.90;15.50;;;;;;;0.53;98.28;96660.52;106357;1309;22360;-85
2022/12/10 06:46:19;;;;;;;18.00;16.30;;;;;;;0.55;98.24;96666.61;106360;1312;22274;-83
2022/12/10 06:48:47;;;;;;;16.40;14.80;;;;;;;0.61;98.19;96667.63;106241;1302;22081;-83
2022/12/10 06:51:17;;;;;;;20.90;19.10;;;;;;;0.67;98.07;96669.81;106584;1299;22604;-83
2022/12/10 06:53:46;;;;;;;15.80;14.40;;;;;;;0.70;97.82;96677.42;106338;1312;22194;-83
2022/12/10 06:56:16;;;;;;;18.90;17.30;;;;;;;0.72;97.73;96690.00;106624;1300;22148;-84
2022/12/10 06:58:46;;;;;;;18.90;17.40;;;;;;;0.73;97.95;96699.43;106491;1312;22120;-83
2022/12/10 07:01:21;;;;;;;19.30;17.50;;;;;;;0.73;97.72;96709.89;106560;1306;22142;-84
2022/12/10 07:03:54;;;;;;;17.90;16.20;;;;;;;0.74;97.67;96720.23;106506;1312;22254;-83
2022/12/10 07:06:24;;;;;;;16.80;15.20;;;;;;;0.81;98.04;96722.14;106389;1312;22725;-83
2022/12/10 07:08:52;;;;;;;16.30;14.80;;;;;;;0.89;98.13;96726.77;106502;1312;22268;-83
2022/12/10 07:11:23;;;;;;;17.80;16.20;;;;;;;0.92;97.85;96720.83;106501;1307;22175;-83
2022/12/10 07:13:52;;;;;;;17.80;16.20;;;;;;;0.91;97.86;96714.29;106254;1311;22437;-83
2022/12/10 07:16:23;;;;;;;15.90;14.50;;;;;;;0.88;97.91;96711.65;106199;1308;22882;-83
2022/12/10 07:18:52;;;;;;;18.10;16.50;;;;;;;0.88;97.84;96709.98;106493;1312;22250;-83
2022/12/10 07:21:27;;;;;;;19.90;18.20;;;;;;;0.90;97.76;96712.86;106541;1308;22245;-83
2022/12/10 07:23:57;;;;;;;19.90;18.20;;;;;;;0.91;97.74;96711.65;106549;1289;22166;-82
2022/12/10 07:26:30;;;;;;;19.80;18.10;;;;;;;0.90;97.54;96711.64;106278;1312;22187;-83
2022/12/10 07:28:59;;;;;;;22.80;20.90;;;;;;;0.88;97.84;96711.70;106683;1297;22203;-83
2022/12/10 07:31:27;;;;;;;22.70;20.70;;;;;;;0.86;97.79;96704.64;106338;1312;22205;-84
2022/12/10 07:33:58;;;;;;;20.30;18.30;;;;;;;0.85;97.61;96711.48;106573;1300;210309;-84
2022/12/10 07:36:26;;;;;;;21.40;19.40;;;;;;;0.88;97.83;96715.20;106627;1300;22140;-83
2022/12/10 07:38:54;;;;;;;22.90;20.80;;;;;;;0.94;97.77;96715.98;106556;1312;22127;-84
2022/12/10 07:41:23;;;;;;;25.80;23.60;;;;;;;0.97;97.73;96716.99;106524;1312;23121;-84
2022/12/10 07:43:51;;;;;;;24.30;22.10;;;;;;;0.97;97.57;96717.90;106370;1312;22193;-84
2022/12/10 07:46:31;;;;;;;24.20;22.10;;;;;;;0.97;97.80;96721.30;106724;1305;23099;-84
2022/12/10 07:49:01;;;;;;;24.00;21.90;;;;;;;0.98;97.93;96726.02;106686;1290;22754;-84
2022/12/10 07:51:29;;;;;;;23.50;21.50;;;;;;;1.02;97.76;96728.09;106524;1311;22959;-83
2022/12/10 07:53:57;;;;;;;21.80;19.90;;;;;;;1.07;97.73;96729.05;106479;1312;22080;-84
2022/12/10 07:56:26;;;;;;;21.50;19.60;;;;;;;1.14;97.73;96724.38;106715;1297;22142;-83
2022/12/10 07:58:54;;;;;;;23.40;21.40;;;;;;;1.21;97.84;96729.73;106676;1297;22994;-83
2022/12/10 08:01:24;;;;;;;24.70;22.50;;;;;;;1.19;97.45;96727.07;106544;1312;22215;-83
2022/12/10 08:03:58;;;;;;;25.60;23.30;;;;;;;1.16;97.41;96727.34;106499;1312;22096;-83
2022/12/10 08:06:27;;;;;;;24.00;21.80;;;;;;;1.10;97.25;96730.80;106141;1312;22301;-83
2022/12/10 08:08:58;;;;;;;22.20;20.30;;;;;;;1.10;97.44;96727.88;106267;1312;22996;-83
2022/12/10 08:11:27;;;;;;;20.40;18.50;;;;;;;1.14;97.43;96725.21;106650;1305;22114;-83
2022/12/10 08:13:56;;;;;;;23.10;21.00;;;;;;;1.13;97.31;96719.17;106483;1312;22139;-83
2022/12/10 08:16:27;;;;;;;42.90;38.70;;;;;;;1.11;97.43;96721.66;106498;1312;22235;-83
2022/12/10 08:18:57;;;;;;;25.20;23.00;;;;;;;1.12;97.40;96716.56;106513;1312;23020;-83
2022/12/10 08:21:29;;;;;;;24.40;22.30;;;;;;;1.08;97.31;96714.88;106386;1312;22216;-83
2022/12/10 08:23:58;;;;;;;18.50;16.80;;;;;;;1.07;97.43;96715.45;106477;1303;22199;-83
2022/12/10 08:26:29;;;;;;;18.90;17.20;;;;;;;1.04;97.35;96721.92;106379;1312;22889;-83
2022/12/10 08:28:58;;;;;;;18.90;17.30;;;;;;;0.98;97.38;96722.73;106481;1312;22299;-83
2022/12/10 08:31:27;;;;;;;18.60;17.00;;;;;;;0.94;97.21;96723.27;106618;1305;22177;-83
2022/12/10 08:34:02;;;;;;;17.70;16.30;;;;;;;0.91;97.30;96724.58;106255;1312;22103;-83
2022/12/10 08:36:30;;;;;;;17.60;16.10;;;;;;;0.92;97.45;96731.06;106614;1286;22307;-83
2022/12/10 08:38:58;;;;;;;20.40;18.70;;;;;;;0.95;97.32;96727.27;106366;1312;22229;-84
2022/12/10 08:41:26;;;;;;;19.50;17.80;;;;;;;1.00;97.37;96726.49;106447;1312;22243;-84
2022/12/10 08:43:55;;;;;;;19.80;18.10;;;;;;;0.99;97.21;96726.34;106177;1312;22103;-84
2022/12/10 08:46:24;;;;;;;20.60;18.50;;;;;;;0.96;97.23;96731.96;106475;1312;22231;-84
2022/12/10 08:48:52;;;;;;;19.10;17.40;;;;;;;0.93;97.18;96741.77;106473;1312;22211;-83
2022/12/10 08:51:21;;;;;;;18.50;16.70;;;;;;;0.91;97.34;96737.95;106366;1312;22187;-83
2022/12/10 08:53:49;;;;;;;17.00;15.50;;;;;;;0.96;97.28;96740.39;106709;1305;22171;-84
2022/12/10 08:56:17;;;;;;;17.10;15.50;;;;;;;0.96;97.12;96741.19;106483;1312;22260;-83
2022/12/10 08:58:44;;;;;;;18.70;17.10;;;;;;;0.95;97.16;96741.50;106361;1312;23099;-83
2022/12/10 09:01:15;;;;;;;21.00;19.30;;;;;;;0.95;97.17;96730.73;106670;1297;22117;-82
2022/12/10 09:03:44;;;;;;;19.40;17.80;;;;;;;0.93;97.24;96728.94;106494;1312;22722;-83
2022/12/10 09:06:15;;;;;;;18.30;16.70;;;;;;;0.96;97.21;96730.67;106388;1312;22230;-83
2022/12/10 09:08:43;;;;;;;17.90;16.40;;;;;;;1.05;97.53;96740.29;106264;1310;22913;-83
2022/12/10 09:11:18;;;;;;;18.80;17.20;;;;;;;1.14;97.52;96736.42;106464;1309;22367;-84
2022/12/10 09:13:46;;;;;;;;;;;;;;;1.20;97.59;96726.00;106636;1308;22486;-83
2022/12/10 09:16:14;;;;;;;19.10;17.40;;;;;;;1.21;97.34;96723.04;106488;1312;22307;-84
2022/12/10 09:18:42;;;;;;;22.60;20.60;;;;;;;1.19;97.29;96717.98;106281;1312;22366;-83
2022/12/10 09:21:14;;;;;;;20.40;18.70;;;;;;;1.18;97.30;96716.88;106255;1312;22272;-83
2022/12/10 09:23:42;;;;;;;21.70;19.80;;;;;;;1.19;97.27;96714.44;106243;1312;22923;-83
2022/12/10 09:26:13;;;;;;;22.10;20.00;;;;;;;1.25;97.18;96712.52;106565;1302;22175;-83
2022/12/10 09:28:42;;;;;;;27.60;20.90;;;;;;;1.30;97.30;96718.30;106542;1312;23778;-83
2022/12/10 09:31:11;;;;;;;23.80;21.60;;;;;;;1.34;97.26;96722.48;106681;1306;22052;-84
2022/12/10 09:33:45;;;;;;;23.00;21.00;;;;;;;1.35;97.24;96728.60;106657;1305;22075;-83
2022/12/10 09:36:13;;;;;;;23.90;21.80;;;;;;;1.33;96.83;96727.00;106532;1312;23003;-83
2022/12/10 09:38:43;;;;;;;326.40;176.10;;;;;;;1.30;97.20;96726.70;106454;1312;22230;-83
2022/12/10 09:41:23;;;;;;;54.60;46.30;;;;;;;1.33;97.38;96718.34;106517;1312;22203;-83
2022/12/10 09:44:02;;;;;;;31.50;28.50;;;;;;;1.40;97.38;96717.01;106400;1288;22275;-83
2022/12/10 09:46:45;;;;;;;25.00;22.70;;;;;;;1.46;97.00;96712.70;106480;1312;22463;-82
2022/12/10 09:49:51;;;;;;;24.60;22.60;;;;;;;1.48;97.14;96710.58;106498;1312;22108;-83
2022/12/10 09:52:22;;;;;;;23.40;21.40;;;;;;;1.44;96.77;96707.35;106496;1312;22767;-83
2022/12/10 09:55:03;;;;;;;22.80;20.90;;;;;;;1.35;97.00;96698.70;106578;1308;22327;-83
2022/12/10 09:57:41;;;;;;;21.30;19.50;;;;;;;1.32;96.99;96697.64;106374;1312;22049;-83
2022/12/10 10:00:28;;;;;;;21.50;19.70;;;;;;;1.32;96.88;96704.92;106579;1296;22153;-84
2022/12/10 10:02:59;;;;;;;36.30;33.00;;;;;;;1.39;96.93;96717.07;106369;1312;22842;-83
2022/12/10 10:05:28;;;;;;;25.00;22.90;;;;;;;1.44;97.03;96708.25;106248;1312;22211;-83
2022/12/10 10:08:00;;;;;;;25.40;23.30;;;;;;;1.40;96.93;96701.41;106495;1296;22220;-84
2022/12/10 10:10:33;;;;;;;21.60;19.80;;;;;;;1.38;97.02;96705.08;106729;1297;22277;-84
2022/12/10 10:13:14;;;;;;;25.00;22.90;;;;;;;1.38;97.04;96709.36;106659;1295;22191;-83
2022/12/10 10:15:44;;;;;;;29.00;26.60;;;;;;;1.41;97.12;96705.43;106479;1303;22177;-86
2022/12/10 10:18:34;;;;;;;33.10;30.50;;;;;;;1.48;97.04;96702.92;106735;1305;22156;-84
2022/12/10 10:21:07;;;;;;;24.00;22.00;;;;;;;1.55;97.07;96705.14;106438;1312;22176;-86
2022/12/10 10:23:34;;;;;;;24.80;22.80;;;;;;;1.53;96.67;96709.08;106577;1306;22334;-85
2022/12/10 10:26:02;;;;;;;24.00;22.10;;;;;;;1.55;96.76;96710.75;106525;1311;22224;-84
2022/12/10 10:28:30;;;;;;;24.60;22.50;;;;;;;1.53;96.89;96714.75;106509;1310;22174;-84
2022/12/10 10:30:58;;;;;;;23.50;21.60;;;;;;;1.59;97.23;96717.14;106378;1312;22181;-84
2022/12/10 10:33:26;;;;;;;21.00;19.30;;;;;;;1.64;96.89;96706.39;106399;1312;22856;-83
2022/12/10 10:35:58;;;;;;;24.00;22.10;;;;;;;1.64;96.66;96705.73;106715;1305;22103;-83
2022/12/10 10:38:28;;;;;;;25.80;23.70;;;;;;;1.69;97.42;96708.55;106527;1303;22221;-83
2022/12/10 10:41:03;;;;;;;22.20;20.30;;;;;;;1.73;96.79;96712.84;106437;1312;22189;-83
2022/12/10 10:43:34;;;;;;;21.40;19.50;;;;;;;1.67;96.40;96708.13;106522;1312;22356;-82
2022/12/10 10:46:06;;;;;;;22.50;20.50;;;;;;;1.62;96.49;96707.20;106561;1312;22202;-81
2022/12/10 10:48:34;;;;;;;24.20;22.20;;;;;;;1.63;96.59;96708.63;106242;1314;22353;-82
2022/12/10 10:51:08;;;;;;;27.20;25.00;;;;;;;1.65;96.59;96700.80;106407;1312;22220;-82
2022/12/10 10:53:39;;;;;;;23.90;21.80;;;;;;;1.70;96.42;96695.38;106440;1312;22240;-83
2022/12/10 10:56:20;;;;;;;24.50;22.40;;;;;;;1.66;96.33;96695.08;106537;1311;22820;-83
2022/12/10 10:59:00;;;;;;;23.40;21.40;;;;;;;1.55;96.31;96697.54;106299;1312;22333;-84
2022/12/10 11:02:17;;;;;;;40.30;37.00;;;;;;;1.48;96.29;96705.16;106372;1310;22136;-82
2022/12/10 11:04:50;;;;;;;24.20;22.30;;;;;;;1.47;96.25;96706.97;105874;1318;22340;-83
2022/12/10 11:07:36;;;;;;;26.60;24.40;;;;;;;1.48;96.40;96708.09;105631;1318;22138;-84
2022/12/10 11:10:15;;;;;;;25.10;23.10;;;;;;;1.49;96.33;96714.01;105747;1318;22396;-83
2022/12/10 11:12:52;;;;;;;25.20;23.10;;;;;;;1.48;96.21;96716.67;105855;1318;22251;-82
2022/12/10 11:15:23;;;;;;;28.80;26.30;;;;;;;1.44;96.30;96720.77;106249;1311;22252;-84
2022/12/10 11:17:55;;;;;;;23.60;21.60;;;;;;;1.40;96.17;96718.70;106229;1301;22278;-83
2022/12/10 11:20:34;;;;;;;24.90;22.80;;;;;;;1.32;96.05;96720.52;105871;1318;22863;-86
2022/12/10 11:23:12;;;;;;;24.70;22.60;;;;;;;1.32;96.17;96712.73;105774;1318;22343;-82
2022/12/10 11:25:40;;;;;;;31.00;28.40;;;;;;;1.29;96.04;96707.74;105606;1316;22372;-85
2022/12/10 11:28:35;;;;;;;26.40;24.20;;;;;;;1.28;96.08;96708.55;105761;1312;22140;-84
2022/12/10 11:31:40;;;;;;;29.30;26.90;;;;;;;1.21;96.12;96705.25;106239;1311;22236;-84
2022/12/10 11:34:07;;;;;;;30.40;27.80;;;;;;;1.16;96.29;96702.57;106194;1311;22202;-85
2022/12/10 11:36:35;;;;;;;25.80;23.60;;;;;;;1.15;96.27;96693.44;106590;1305;22110;-85
2022/12/10 11:39:37;;;;;;;25.90;23.60;;;;;;;1.15;96.19;96697.04;106477;1312;22095;-86
2022/12/10 11:42:34;;;;;;;31.90;29.30;;;;;;;1.10;96.28;96706.91;106449;1303;22069;-84
2022/12/10 11:45:17;;;;;;;29.40;26.80;;;;;;;1.07;96.24;96707.60;106497;1312;22197;-84
2022/12/10 11:48:19;;;;;;;30.90;28.30;;;;;;;0.99;96.13;96705.65;106488;1312;22311;-83
2022/12/10 11:50:53;;;;;;;40.30;36.80;;;;;;;0.91;96.10;96704.91;106693;1305;22283;-87
2022/12/10 11:53:27;;;;;;;29.00;26.50;;;;;;;0.91;96.38;96713.77;106263;1312;22184;-86